Nearby METAR Reports

 

KW29 - Stevensville, Maryland, USA
Distance from station: SSW 13mi, 21km
Updated: Tue, 19-Nov-2019 7:55am EST
Mist, Overcast
Mist, Overcast
 Wind from W
Wind: W 7 mph , 11 km/h
Temperature: 45°F , 7°C
Wind Chill: 41°F , 5°C
Dew Point: 43°F , 6°C
Humidity: 93%
Barometer: 29.83 inHg , 1010.2 hPa
Summary: Mist
Clouds: Overcast
Visibility: 5 miles , 8 km
Cloud details: Overcast 800 ft
2019/11/19 12:55 KW29 191255Z AUTO 26006KT 5SM BR OVC008 07/06 A2983 RMK AO2
KMTN - Baltimore/Martin, Maryland, USA
Distance from station: NW 13mi, 22km
Updated: Tue, 19-Nov-2019 7:54am EST
Mist, Partly cloudy
Mist, Partly cloudy
 Wind from calm
Wind: Calm
Temperature: 39°F , 4°C
Dew Point: 39°F , 4°C
Humidity: 100%
Barometer: 29.84 inHg , 1010.5 hPa
Summary: Mist
Clouds: Partly cloudy
Visibility: 3 miles , 5 km
Cloud details: Few Clouds 700 ft
Partly cloudy 5500 ft
2019/11/19 12:54 KMTN 191254Z 00000KT 3SM BR FEW007 SCT055 04/04 A2984
 
KNAK - Annapolis/Naval, Maryland, USA
Distance from station: SW 18mi, 28km
Updated: Tue, 19-Nov-2019 7:54am EST
Mist, Overcast
Mist, Overcast
 Wind from varies
Wind: varies 3 mph , 6 km/h
Temperature: 45°F , 7°C
Dew Point: 43°F , 6°C
Humidity: 93%
Barometer: 29.82 inHg , 1009.8 hPa
Summary: Mist
Clouds: Overcast
Visibility: 4 miles , 6 km
Cloud details: Overcast 1000 ft
2019/11/19 12:54 KNAK 191254Z AUTO VRB03KT 4SM BR OVC010 07/06 A2982 RMK AO2 SLP100 T00670056
KAPG - Aberdeen/Phillip, Maryland, USA
Distance from station: NNE 21mi, 34km
Updated: Tue, 19-Nov-2019 7:56am EST
Mist, Mostly cloudy
Mist, Mostly cloudy
 Wind from calm
Wind: Calm
Temperature: 39°F , 4°C
Dew Point: 39°F , 4°C
Humidity: 100%
Barometer: 29.83 inHg , 1010.2 hPa
Summary: Mist
Clouds: Mostly cloudy
Visibility: 3 miles , 5 km
Cloud details: Partly cloudy 900 ft
Mostly cloudy 6000 ft
2019/11/19 12:56 KAPG 191256Z 00000KT 3SM BR SCT009 BKN060 04/04 A2983
 
KDMH - Baltimore/Dwntwn, Maryland, USA
Distance from station: WNW 21mi, 34km
Updated: Tue, 19-Nov-2019 7:54am EST

 
Temperature: 45°F , 7°C
Dew Point: 39°F , 4°C
Humidity: 81%
Barometer: 29.82 inHg , 1009.8 hPa
2019/11/19 12:54 KDMH 191254Z AUTO 07/04 A2982 RMK AO1 SLP098 T00670044
KBWI - Balto/Wash Intl, Maryland, USA
Distance from station: W 23mi, 37km
Updated: Tue, 19-Nov-2019 7:54am EST
Mist, Partly cloudy
Mist, Partly cloudy
 Wind from W
Wind: W 5 mph , 7 km/h
Temperature: 45°F , 7°C
Wind Chill: 42°F , 6°C
Dew Point: 43°F , 6°C
Humidity: 93%
Barometer: 29.81 inHg , 1009.5 hPa
Summary: Mist
Clouds: Partly cloudy
Visibility: 2 1/2 miles , 4 km
Cloud details: Partly cloudy 0 ft
Partly cloudy 600 ft
Partly cloudy 1100 ft
Partly cloudy 7000 ft
2019/11/19 12:54 KBWI 191254Z 26004KT 2 1/2SM BR SCT000 SCT006 SCT011 SCT070 07/06 A2981 RMK AO2 SLP095 BR SCT000 T00670056
 
KESN - Easton/Newnam, Maryland, USA
Distance from station: SSE 27mi, 44km
Updated: Tue, 19-Nov-2019 7:50am EST
Overcast
Overcast
 Wind from WSW
Wind: WSW 5 mph , 7 km/h
Temperature: 45°F , 7°C
Wind Chill: 42°F , 6°C
Dew Point: 45°F , 7°C
Humidity: 100%
Barometer: 29.86 inHg , 1011.2 hPa
Clouds: Overcast
Visibility: 7 miles , 11 km
Cloud details: Overcast 400 ft
2019/11/19 12:50 KESN 191250Z 24004KT 7SM OVC004 07/07 A2986
KFME - Fort Meade, Maryland, USA
Distance from station: WSW 28mi, 45km
Updated: Tue, 19-Nov-2019 7:54am EST
Overcast
Overcast
 Wind from calm
Wind: Calm
Temperature: 41°F , 5°C
Dew Point: 41°F , 5°C
Humidity: 100%
Barometer: 29.84 inHg , 1010.5 hPa
Clouds: Overcast
Visibility: 3/4 mile , 1.2 km
Cloud details: Overcast 700 ft
2019/11/19 12:54 KFME 191254Z AUTO 00000KT 3/4SM OVC007 05/05 A2984 RMK AO1
 
KCGS - College Park, Maryland, USA
Distance from station: WSW 38mi, 61km
Updated: Tue, 19-Nov-2019 7:55am EST
Mostly cloudy
Mostly cloudy
 Wind from NW
Wind: NW 3 mph , 6 km/h
Temperature: 43°F , 6°C
Dew Point: 41°F , 5°C
Humidity: 93%
Barometer: 29.81 inHg , 1009.5 hPa
Clouds: Mostly cloudy
Visibility: 7 miles , 11 km
Cloud details: Mostly cloudy 700 ft
2019/11/19 12:55 KCGS 191255Z AUTO 31003KT 7SM BKN007 06/05 A2981 RMK AO1 T00580048
KADW - Andrews Afb, Maryland, USA
Distance from station: SW 41mi, 66km
Updated: Tue, 19-Nov-2019 7:41am EST
Overcast
Overcast
 Wind from calm
Wind: Calm
Temperature: 43°F , 6°C
Dew Point: 43°F , 6°C
Humidity: 100%
Barometer: 29.81 inHg , 1009.5 hPa
Clouds: Overcast
Visibility: 7 miles , 11 km
Cloud details: Overcast 400 ft
2019/11/19 12:41 KADW 191241Z AUTO 00000KT 7SM OVC004 06/06 A2981 RMK AO2 SLP103 $
 
KDOV - Dover Afb, Delaware, USA
Distance from station: E 42mi, 68km
Updated: Tue, 19-Nov-2019 7:16am EST
Overcast
Overcast
 Wind from WSW
Wind: WSW 6 mph , 9 km/h
Temperature: 45°F , 7°C
Wind Chill: 42°F , 6°C
Dew Point: 43°F , 6°C
Humidity: 93%
Barometer: 29.80 inHg , 1009.1 hPa
Clouds: Overcast
Cloud details: Overcast 700 ft
2019/11/19 12:16 KDOV 191216Z AUTO 25005KT M M OVC007 07/06 A2980 RMK AO2 CIG 006 RWY19 SLP095 RVRNO $
KCGE - Cambridge-Dorch, Maryland, USA
Distance from station: SSE 45mi, 73km
Updated: Tue, 19-Nov-2019 7:55am EST
Overcast
Overcast
 Wind from WSW
Wind: WSW 6 mph , 9 km/h
Temperature: 45°F , 7°C
Wind Chill: 42°F , 6°C
Dew Point: 45°F , 7°C
Humidity: 100%
Barometer: 29.83 inHg , 1010.2 hPa
Clouds: Overcast
Visibility: M 9 miles , 14 km
Cloud details: Overcast 500 ft
2019/11/19 12:55 KCGE 191255Z AUTO 25005KT 9SM OVC005 07/07 A2983 RMK A01
 
KDCA - Washington/Natl, Washington D.c., USA
Distance from station: WSW 47mi, 76km
Updated: Tue, 19-Nov-2019 7:52am EST
Mostly cloudy
Mostly cloudy
 Wind from WSW
Wind: WSW 3 mph , 6 km/h
Temperature: 45°F , 7°C
Dew Point: 43°F , 6°C
Humidity: 93%
Barometer: 29.83 inHg , 1010.2 hPa
Clouds: Mostly cloudy
Visibility: 7 miles , 11 km
Cloud details: Partly cloudy 700 ft
Mostly cloudy 25000 ft
2019/11/19 12:52 KDCA 191252Z 24003KT 7SM SCT007 BKN250 07/06 A2983 RMK AO2 SLP102 T00670056
KGAI - Gaithersburg, Maryland, USA
Distance from station: W 49mi, 78km
Updated: Tue, 19-Nov-2019 7:56am EST
Fog, Overcast
Fog, Overcast
 Wind from NW
Wind: NW 3 mph , 6 km/h
Temperature: 39°F , 4°C
Dew Point: 39°F , 4°C
Humidity: 100%
Barometer: 29.82 inHg , 1009.8 hPa
Summary: Fog
Clouds: Overcast
Visibility: less than 1/4 mile , 0.4 km
Cloud details: Overcast 300 ft
2019/11/19 12:56 KGAI 191256Z AUTO 31003KT M1/4SM FG OVC003 04/04 A2982 RMK AO2 SLP117 T00390039
 
KILG - Wilmington, Delaware, USA
Distance from station: NE 49mi, 79km
Updated: Tue, 19-Nov-2019 7:51am EST
Mist, Overcast
Mist, Overcast
 Wind from WSW
Wind: WSW 6 mph , 9 km/h
Temperature: 43°F , 6°C
Wind Chill: 39°F , 4°C
Dew Point: 37°F , 3°C
Humidity: 81%
Barometer: 29.83 inHg , 1010.2 hPa
Summary: Mist
Clouds: Overcast
Visibility: 6 miles , 10 km
Cloud details: Overcast 800 ft
2019/11/19 12:51 KILG 191251Z 25005KT 6SM BR OVC008 06/03 A2983 RMK AO2 SLP100 T00560033 $
KDMW - Carroll Cnty, Maryland, USA
Distance from station: NW 50mi, 80km
Updated: Tue, 19-Nov-2019 7:55am EST
Fog, Mostly cloudy
Fog, Mostly cloudy
 Wind from calm
Wind: Calm
Temperature: 36°F , 2°C
Dew Point: 36°F , 2°C
Humidity: 100%
Barometer: 29.81 inHg , 1009.5 hPa
Summary: Fog
Clouds: Mostly cloudy
Visibility: 1/4 mile , 0.4 km
Cloud details: Mostly cloudy 100 ft
2019/11/19 12:55 KDMW 191255Z AUTO 00000KT 1/4SM FG BKN001 02/02 A2981 RMK AO2 VIS M1/4V2 1/2